sensor_id;sensor_type;location;lat;lon;timestamp;pressure;altitude;pressure_sealevel;temperature;humidity
31585;BME280;18191;51.288;12.390;2023-01-29T00:03:25;49140.13;;;-144.47;72.83
31585;BME280;18191;51.288;12.390;2023-01-29T00:08:15;49124.22;;;-144.47;74.48
31585;BME280;18191;51.288;12.390;2023-01-29T00:13:05;49189.88;;;-144.47;75.16
31585;BME280;18191;51.288;12.390;2023-01-29T00:17:56;49148.09;;;-144.47;75.24
31585;BME280;18191;51.288;12.390;2023-01-29T00:22:46;49140.13;;;-144.47;76.51
31585;BME280;18191;51.288;12.390;2023-01-29T00:27:36;49166.00;;;-144.47;76.59
31585;BME280;18191;51.288;12.390;2023-01-29T00:32:26;49160.03;;;-144.47;76.36
31585;BME280;18191;51.288;12.390;2023-01-29T00:37:16;49156.03;;;-144.47;75.64
31585;BME280;18191;51.288;12.390;2023-01-29T00:42:06;49144.09;;;-144.47;76.51
31585;BME280;18191;51.288;12.390;2023-01-29T00:47:15;49185.88;;;-144.47;77.16
31585;BME280;18191;51.288;12.390;2023-01-29T00:52:24;49134.16;;;-144.47;76.95
31585;BME280;18191;51.288;12.390;2023-01-29T00:57:14;49175.94;;;-144.47;77.22
31585;BME280;18191;51.288;12.390;2023-01-29T01:02:04;49148.09;;;-144.47;77.37
31585;BME280;18191;51.288;12.390;2023-01-29T01:07:13;49175.94;;;-144.47;78.16
31585;BME280;18191;51.288;12.390;2023-01-29T01:12:04;49148.09;;;-144.47;77.82
31585;BME280;18191;51.288;12.390;2023-01-29T01:16:54;49144.09;;;-144.47;77.85
31585;BME280;18191;51.288;12.390;2023-01-29T01:21:47;49175.94;;;-144.47;77.74
31585;BME280;18191;51.288;12.390;2023-01-29T01:26:37;49164.00;;;-144.47;78.19
31585;BME280;18191;51.288;12.390;2023-01-29T01:31:27;49167.97;;;-144.47;78.12
31585;BME280;18191;51.288;12.390;2023-01-29T01:36:18;49144.09;;;-144.47;78.56
31585;BME280;18191;51.288;12.390;2023-01-29T01:41:08;49154.06;;;-144.47;78.25
31585;BME280;18191;51.288;12.390;2023-01-29T01:45:58;49140.13;;;-144.47;78.64
31585;BME280;18191;51.288;12.390;2023-01-29T01:50:50;49160.03;;;-144.47;78.28
31585;BME280;18191;51.288;12.390;2023-01-29T01:55:51;49160.03;;;-144.47;78.46
31585;BME280;18191;51.288;12.390;2023-01-29T02:00:43;49124.22;;;-144.47;78.57
31585;BME280;18191;51.288;12.390;2023-01-29T02:05:33;49171.97;;;-144.47;78.91
31585;BME280;18191;51.288;12.390;2023-01-29T02:10:45;49164.00;;;-144.47;79.74
31585;BME280;18191;51.288;12.390;2023-01-29T02:15:35;49160.03;;;-144.47;79.96
31585;BME280;18191;51.288;12.390;2023-01-29T02:20:27;49171.97;;;-144.47;80.57
31585;BME280;18191;51.288;12.390;2023-01-29T02:30:08;49167.97;;;-144.47;80.68
31585;BME280;18191;51.288;12.390;2023-01-29T02:35:09;49173.94;;;-144.47;80.86
31585;BME280;18191;51.288;12.390;2023-01-29T02:45:18;49215.72;;;-144.47;80.97
31585;BME280;18191;51.288;12.390;2023-01-29T02:55:24;49189.88;;;-144.47;81.28
31585;BME280;18191;51.288;12.390;2023-01-29T03:00:25;49185.88;;;-144.47;81.43
31585;BME280;18191;51.288;12.390;2023-01-29T03:05:20;49177.94;;;-144.47;81.30
31585;BME280;18191;51.288;12.390;2023-01-29T03:10:27;49167.97;;;-144.47;81.43
31585;BME280;18191;51.288;12.390;2023-01-29T03:15:22;49152.06;;;-144.47;82.28
31585;BME280;18191;51.288;12.390;2023-01-29T03:20:16;49179.91;;;-144.47;81.98
31585;BME280;18191;51.288;12.390;2023-01-29T03:25:07;49158.03;;;-144.47;81.92
31585;BME280;18191;51.288;12.390;2023-01-29T03:30:17;49179.91;;;-144.47;82.31
31585;BME280;18191;51.288;12.390;2023-01-29T03:35:27;49152.06;;;-144.47;82.37
31585;BME280;18191;51.288;12.390;2023-01-29T03:40:25;49175.94;;;-144.47;82.40
31585;BME280;18191;51.288;12.390;2023-01-29T03:45:19;49167.97;;;-144.47;82.10
31585;BME280;18191;51.288;12.390;2023-01-29T03:50:15;49207.78;;;-144.47;82.16
31585;BME280;18191;51.288;12.390;2023-01-29T04:05:07;49171.97;;;-144.47;82.64
31585;BME280;18191;51.288;12.390;2023-01-29T04:10:00;49177.94;;;-144.47;83.62
31585;BME280;18191;51.288;12.390;2023-01-29T04:14:52;49191.84;;;-144.47;84.05
31585;BME280;18191;51.288;12.390;2023-01-29T04:19:43;49179.91;;;-144.47;83.87
31585;BME280;18191;51.288;12.390;2023-01-29T04:24:33;49207.78;;;-144.47;84.47
31585;BME280;18191;51.288;12.390;2023-01-29T04:30:06;49128.19;;;-144.47;83.66
31585;BME280;18191;51.288;12.390;2023-01-29T04:34:44;49162.00;;;-144.47;83.85
31585;BME280;18191;51.288;12.390;2023-01-29T04:44:33;49140.13;;;-144.47;82.21
31585;BME280;18191;51.288;12.390;2023-01-29T04:54:21;49199.81;;;-144.47;81.54
31585;BME280;18191;51.288;12.390;2023-01-29T04:59:17;49187.88;;;-144.47;80.68
31585;BME280;18191;51.288;12.390;2023-01-29T05:04:10;49140.13;;;-144.47;80.83
31585;BME280;18191;51.288;12.390;2023-01-29T05:09:02;49116.25;;;-144.47;80.54
31585;BME280;18191;51.288;12.390;2023-01-29T05:13:52;49193.84;;;-144.47;80.07
31585;BME280;18191;51.288;12.390;2023-01-29T05:18:43;49156.03;;;-144.47;80.30
31585;BME280;18191;51.288;12.390;2023-01-29T05:23:33;49187.88;;;-144.47;79.80
31585;BME280;18191;51.288;12.390;2023-01-29T05:28:23;49150.06;;;-144.47;79.47
31585;BME280;18191;51.288;12.390;2023-01-29T05:33:15;49156.03;;;-144.47;79.15
31585;BME280;18191;51.288;12.390;2023-01-29T05:38:06;49171.97;;;-144.47;79.28
31585;BME280;18191;51.288;12.390;2023-01-29T05:42:56;49146.09;;;-144.47;79.17
31585;BME280;18191;51.288;12.390;2023-01-29T05:47:46;49183.91;;;-144.47;79.74
31585;BME280;18191;51.288;12.390;2023-01-29T05:52:36;49175.94;;;-144.47;79.11
31585;BME280;18191;51.288;12.390;2023-01-29T05:57:26;49152.06;;;-144.47;78.58
31585;BME280;18191;51.288;12.390;2023-01-29T06:02:17;49144.09;;;-144.47;78.68
31585;BME280;18191;51.288;12.390;2023-01-29T06:07:07;49187.88;;;-144.47;78.80
31585;BME280;18191;51.288;12.390;2023-01-29T06:11:57;49150.06;;;-144.47;78.09
31585;BME280;18191;51.288;12.390;2023-01-29T06:16:47;49177.94;;;-144.47;78.01
31585;BME280;18191;51.288;12.390;2023-01-29T06:21:37;49136.16;;;-144.47;78.65
31585;BME280;18191;51.288;12.390;2023-01-29T06:26:27;49148.09;;;-144.47;78.57
31585;BME280;18191;51.288;12.390;2023-01-29T06:31:18;49150.06;;;-144.47;78.01
31585;BME280;18191;51.288;12.390;2023-01-29T06:36:08;49142.13;;;-144.47;78.12
31585;BME280;18191;51.288;12.390;2023-01-29T06:40:58;49152.06;;;-144.47;77.58
31585;BME280;18191;51.288;12.390;2023-01-29T06:45:49;49138.16;;;-144.47;77.50
31585;BME280;18191;51.288;12.390;2023-01-29T06:50:40;49167.97;;;-144.47;77.77
31585;BME280;18191;51.288;12.390;2023-01-29T06:55:30;49167.97;;;-144.47;78.27
31585;BME280;18191;51.288;12.390;2023-01-29T07:00:20;49148.09;;;-144.47;78.11
31585;BME280;18191;51.288;12.390;2023-01-29T07:05:10;49167.97;;;-144.47;77.54
31585;BME280;18191;51.288;12.390;2023-01-29T07:10:00;49175.94;;;-144.47;77.33
31585;BME280;18191;51.288;12.390;2023-01-29T07:14:51;49160.03;;;-144.47;77.54
31585;BME280;18191;51.288;12.390;2023-01-29T07:19:41;49183.91;;;-144.47;77.74
31585;BME280;18191;51.288;12.390;2023-01-29T07:24:31;49160.03;;;-144.47;77.28
31585;BME280;18191;51.288;12.390;2023-01-29T07:29:21;49169.97;;;-144.47;77.13
31585;BME280;18191;51.288;12.390;2023-01-29T07:34:11;49152.06;;;-144.47;77.41
31585;BME280;18191;51.288;12.390;2023-01-29T07:39:01;49175.94;;;-144.47;76.66
31585;BME280;18191;51.288;12.390;2023-01-29T07:43:52;49150.06;;;-144.47;76.34
31585;BME280;18191;51.288;12.390;2023-01-29T07:48:42;49132.16;;;-144.47;75.21
31585;BME280;18191;51.288;12.390;2023-01-29T07:53:32;49167.97;;;-144.47;75.06
31585;BME280;18191;51.288;12.390;2023-01-29T07:58:23;49124.22;;;-144.47;74.51
31585;BME280;18191;51.288;12.390;2023-01-29T08:03:14;49160.03;;;-144.47;75.02
31585;BME280;18191;51.288;12.390;2023-01-29T08:08:05;49171.97;;;-144.47;74.43
31585;BME280;18191;51.288;12.390;2023-01-29T08:12:55;49146.09;;;-144.47;74.40
31585;BME280;18191;51.288;12.390;2023-01-29T08:17:46;49156.03;;;-144.47;74.80
31585;BME280;18191;51.288;12.390;2023-01-29T08:22:36;49156.03;;;-144.47;74.11
31585;BME280;18191;51.288;12.390;2023-01-29T08:27:27;49148.09;;;-144.47;73.77
31585;BME280;18191;51.288;12.390;2023-01-29T08:32:17;49152.06;;;-144.47;73.17
31585;BME280;18191;51.288;12.390;2023-01-29T08:37:07;49144.09;;;-144.47;72.43
31585;BME280;18191;51.288;12.390;2023-01-29T08:41:57;49114.28;;;-144.47;72.61
31585;BME280;18191;51.288;12.390;2023-01-29T08:46:48;49146.09;;;-144.47;72.84
31585;BME280;18191;51.288;12.390;2023-01-29T08:51:38;49146.09;;;-144.47;72.01
31585;BME280;18191;51.288;12.390;2023-01-29T08:56:28;49112.28;;;-144.47;72.39
31585;BME280;18191;51.288;12.390;2023-01-29T09:01:18;49140.13;;;-144.47;72.61
31585;BME280;18191;51.288;12.390;2023-01-29T09:06:09;49142.13;;;-144.47;72.52
31585;BME280;18191;51.288;12.390;2023-01-29T09:11:00;49110.28;;;-144.47;73.34
31585;BME280;18191;51.288;12.390;2023-01-29T09:15:50;49132.16;;;-144.47;72.81
31585;BME280;18191;51.288;12.390;2023-01-29T09:20:40;49164.00;;;-144.47;73.66
31585;BME280;18191;51.288;12.390;2023-01-29T09:25:30;49148.09;;;-144.47;73.10
31585;BME280;18191;51.288;12.390;2023-01-29T09:30:21;49148.09;;;-144.47;73.01
31585;BME280;18191;51.288;12.390;2023-01-29T09:35:11;49148.09;;;-144.47;73.71
31585;BME280;18191;51.288;12.390;2023-01-29T09:40:01;49162.00;;;-144.47;73.06
31585;BME280;18191;51.288;12.390;2023-01-29T09:49:49;49154.06;;;-144.47;71.88
31585;BME280;18191;51.288;12.390;2023-01-29T09:59:52;49136.16;;;-144.47;71.17
31585;BME280;18191;51.288;12.390;2023-01-29T10:14:58;49134.16;;;-144.47;70.48
31585;BME280;18191;51.288;12.390;2023-01-29T10:29:43;49136.16;;;-144.47;69.97
31585;BME280;18191;51.288;12.390;2023-01-29T10:34:44;49140.13;;;-144.47;69.30
31585;BME280;18191;51.288;12.390;2023-01-29T10:39:36;49146.09;;;-144.47;69.04
31585;BME280;18191;51.288;12.390;2023-01-29T10:59:55;49164.00;;;-144.47;67.59
31585;BME280;18191;51.288;12.390;2023-01-29T11:04:49;49132.16;;;-144.47;67.23
31585;BME280;18191;51.288;12.390;2023-01-29T11:09:45;49128.19;;;-144.47;68.17
31585;BME280;18191;51.288;12.390;2023-01-29T11:14:42;49164.00;;;-144.47;67.03
31585;BME280;18191;51.288;12.390;2023-01-29T11:19:37;49152.06;;;-144.47;65.96
31585;BME280;18191;51.288;12.390;2023-01-29T11:24:28;49102.34;;;-144.47;66.72
31585;BME280;18191;51.288;12.390;2023-01-29T11:34:22;49110.28;;;-144.47;66.37
31585;BME280;18191;51.288;12.390;2023-01-29T11:39:18;49136.16;;;-144.47;66.53
31585;BME280;18191;51.288;12.390;2023-01-29T11:44:16;49120.25;;;-144.47;66.21
31585;BME280;18191;51.288;12.390;2023-01-29T11:49:11;49140.13;;;-144.47;65.91
31585;BME280;18191;51.288;12.390;2023-01-29T11:54:11;49140.13;;;-144.47;65.70
31585;BME280;18191;51.288;12.390;2023-01-29T11:59:05;49142.13;;;-144.47;65.86
31585;BME280;18191;51.288;12.390;2023-01-29T12:03:57;49092.38;;;-144.47;65.42
31585;BME280;18191;51.288;12.390;2023-01-29T12:08:54;49148.09;;;-144.47;66.12
31585;BME280;18191;51.288;12.390;2023-01-29T12:13:45;49120.25;;;-144.47;65.58
31585;BME280;18191;51.288;12.390;2023-01-29T12:19:04;49167.97;;;-144.47;65.29
31585;BME280;18191;51.288;12.390;2023-01-29T12:24:42;49138.16;;;-144.47;65.93
31585;BME280;18191;51.288;12.390;2023-01-29T12:29:12;49128.19;;;-144.47;64.49
31585;BME280;18191;51.288;12.390;2023-01-29T12:34:11;49088.41;;;-144.47;65.61
31585;BME280;18191;51.288;12.390;2023-01-29T12:39:05;49104.31;;;-144.47;65.78
31585;BME280;18191;51.288;12.390;2023-01-29T12:43:56;49112.28;;;-144.47;65.20
31585;BME280;18191;51.288;12.390;2023-01-29T12:48:48;49140.13;;;-144.47;65.31
31585;BME280;18191;51.288;12.390;2023-01-29T12:58:37;49144.09;;;-144.47;64.67
31585;BME280;18191;51.288;12.390;2023-01-29T13:03:38;49120.25;;;-144.47;64.97
31585;BME280;18191;51.288;12.390;2023-01-29T13:08:35;49132.16;;;-144.47;64.10
31585;BME280;18191;51.288;12.390;2023-01-29T13:13:32;49128.19;;;-144.47;63.49
31585;BME280;18191;51.288;12.390;2023-01-29T13:23:22;49130.19;;;-144.47;65.11
31585;BME280;18191;51.288;12.390;2023-01-29T13:28:17;49100.34;;;-144.47;65.37
31585;BME280;18191;51.288;12.390;2023-01-29T13:33:14;49146.09;;;-144.47;65.68
31585;BME280;18191;51.288;12.390;2023-01-29T13:38:24;49156.03;;;-144.47;65.13
31585;BME280;18191;51.288;12.390;2023-01-29T13:43:20;49160.03;;;-144.47;65.77
31585;BME280;18191;51.288;12.390;2023-01-29T13:48:22;49116.25;;;-144.47;64.81
31585;BME280;18191;51.288;12.390;2023-01-29T13:53:19;49104.31;;;-144.47;66.18
31585;BME280;18191;51.288;12.390;2023-01-29T14:08:35;49088.41;;;-144.47;65.14
31585;BME280;18191;51.288;12.390;2023-01-29T14:23:00;49110.28;;;-144.47;65.25
31585;BME280;18191;51.288;12.390;2023-01-29T14:27:53;49128.19;;;-144.47;66.40
31585;BME280;18191;51.288;12.390;2023-01-29T14:32:46;49128.19;;;-144.47;66.07
31585;BME280;18191;51.288;12.390;2023-01-29T14:37:38;49148.09;;;-144.47;66.64
31585;BME280;18191;51.288;12.390;2023-01-29T14:42:33;49142.13;;;-144.47;68.30
31585;BME280;18191;51.288;12.390;2023-01-29T14:52:28;49144.09;;;-144.47;68.36
31585;BME280;18191;51.288;12.390;2023-01-29T14:57:21;49108.31;;;-144.47;69.07
31585;BME280;18191;51.288;12.390;2023-01-29T15:02:17;49132.16;;;-144.47;68.91
31585;BME280;18191;51.288;12.390;2023-01-29T15:12:01;49136.16;;;-144.47;69.64
31585;BME280;18191;51.288;12.390;2023-01-29T15:22:08;49112.28;;;-144.47;70.14
31585;BME280;18191;51.288;12.390;2023-01-29T15:26:59;49148.09;;;-144.47;70.25
31585;BME280;18191;51.288;12.390;2023-01-29T15:31:50;49150.06;;;-144.47;70.36
31585;BME280;18191;51.288;12.390;2023-01-29T15:36:40;49120.25;;;-144.47;71.00
31585;BME280;18191;51.288;12.390;2023-01-29T15:41:30;49138.16;;;-144.47;71.59
31585;BME280;18191;51.288;12.390;2023-01-29T15:46:23;49146.09;;;-144.47;71.48
31585;BME280;18191;51.288;12.390;2023-01-29T15:51:15;49108.31;;;-144.47;72.18
31585;BME280;18191;51.288;12.390;2023-01-29T15:56:07;49142.13;;;-144.47;72.89
31585;BME280;18191;51.288;12.390;2023-01-29T16:00:58;49118.25;;;-144.47;72.17
31585;BME280;18191;51.288;12.390;2023-01-29T16:05:49;49154.06;;;-144.47;72.56
31585;BME280;18191;51.288;12.390;2023-01-29T16:10:40;49171.97;;;-144.47;72.67
31585;BME280;18191;51.288;12.390;2023-01-29T16:15:37;49167.97;;;-144.47;73.21
31585;BME280;18191;51.288;12.390;2023-01-29T16:20:33;49124.22;;;-144.47;72.27
31585;BME280;18191;51.288;12.390;2023-01-29T16:25:25;49126.22;;;-144.47;73.04
31585;BME280;18191;51.288;12.390;2023-01-29T16:30:20;49124.22;;;-144.47;72.98
31585;BME280;18191;51.288;12.390;2023-01-29T16:35:15;49144.09;;;-144.47;73.07
31585;BME280;18191;51.288;12.390;2023-01-29T16:40:20;49112.28;;;-144.47;72.36
31585;BME280;18191;51.288;12.390;2023-01-29T16:45:24;49152.06;;;-144.47;72.86
31585;BME280;18191;51.288;12.390;2023-01-29T16:50:30;49160.03;;;-144.47;73.23
31585;BME280;18191;51.288;12.390;2023-01-29T16:55:24;49164.00;;;-144.47;73.33
31585;BME280;18191;51.288;12.390;2023-01-29T17:00:19;49144.09;;;-144.47;72.98
31585;BME280;18191;51.288;12.390;2023-01-29T17:05:16;49142.13;;;-144.47;73.87
31585;BME280;18191;51.288;12.390;2023-01-29T17:10:14;49140.13;;;-144.47;74.52
31585;BME280;18191;51.288;12.390;2023-01-29T17:15:21;49166.00;;;-144.47;74.52
31585;BME280;18191;51.288;12.390;2023-01-29T17:20:15;49164.00;;;-144.47;74.86
31585;BME280;18191;51.288;12.390;2023-01-29T17:25:05;49136.16;;;-144.47;74.97
31585;BME280;18191;51.288;12.390;2023-01-29T17:29:55;49167.97;;;-144.47;74.23
31585;BME280;18191;51.288;12.390;2023-01-29T17:34:45;49160.03;;;-144.47;74.43
31585;BME280;18191;51.288;12.390;2023-01-29T17:39:36;49152.06;;;-144.47;75.54
31585;BME280;18191;51.288;12.390;2023-01-29T17:44:26;49136.16;;;-144.47;75.23
31585;BME280;18191;51.288;12.390;2023-01-29T17:54:06;49150.06;;;-144.47;75.08
31585;BME280;18191;51.288;12.390;2023-01-29T17:58:56;49152.06;;;-144.47;75.09
31585;BME280;18191;51.288;12.390;2023-01-29T18:03:46;49120.25;;;-144.47;74.23
31585;BME280;18191;51.288;12.390;2023-01-29T18:08:37;49162.00;;;-144.47;73.45
31585;BME280;18191;51.288;12.390;2023-01-29T18:13:28;49167.97;;;-144.47;74.03
31585;BME280;18191;51.288;12.390;2023-01-29T18:18:19;49112.28;;;-144.47;73.74
31585;BME280;18191;51.288;12.390;2023-01-29T18:23:10;49160.03;;;-144.47;72.30
31585;BME280;18191;51.288;12.390;2023-01-29T18:28:01;49096.38;;;-144.47;71.85
31585;BME280;18191;51.288;12.390;2023-01-29T18:32:51;49171.97;;;-144.47;71.85
31585;BME280;18191;51.288;12.390;2023-01-29T18:37:43;49126.22;;;-144.47;72.17
31585;BME280;18191;51.288;12.390;2023-01-29T18:42:33;49108.31;;;-144.47;72.94
31585;BME280;18191;51.288;12.390;2023-01-29T18:47:24;49166.00;;;-144.47;72.28
31585;BME280;18191;51.288;12.390;2023-01-29T18:52:15;49122.22;;;-144.47;73.03
31585;BME280;18191;51.288;12.390;2023-01-29T18:57:05;49189.88;;;-144.47;73.33
31585;BME280;18191;51.288;12.390;2023-01-29T19:01:55;49124.22;;;-144.47;73.41
31585;BME280;18191;51.288;12.390;2023-01-29T19:06:45;49156.03;;;-144.47;73.12
31585;BME280;18191;51.288;12.390;2023-01-29T19:11:35;49140.13;;;-144.47;73.34
31585;BME280;18191;51.288;12.390;2023-01-29T19:16:26;49158.03;;;-144.47;72.75
31585;BME280;18191;51.288;12.390;2023-01-29T19:21:16;49098.34;;;-144.47;73.41
31585;BME280;18191;51.288;12.390;2023-01-29T19:26:06;49134.16;;;-144.47;72.36
31585;BME280;18191;51.288;12.390;2023-01-29T19:30:57;49136.16;;;-144.47;71.88
31585;BME280;18191;51.288;12.390;2023-01-29T19:35:47;49128.19;;;-144.47;72.14
31585;BME280;18191;51.288;12.390;2023-01-29T19:40:37;49167.97;;;-144.47;71.91
31585;BME280;18191;51.288;12.390;2023-01-29T19:45:27;49171.97;;;-144.47;72.05
31585;BME280;18191;51.288;12.390;2023-01-29T19:50:19;49116.25;;;-144.47;71.16
31585;BME280;18191;51.288;12.390;2023-01-29T19:55:09;49140.13;;;-144.47;70.85
31585;BME280;18191;51.288;12.390;2023-01-29T20:00:00;49164.00;;;-144.47;70.66
31585;BME280;18191;51.288;12.390;2023-01-29T20:04:50;49128.19;;;-144.47;70.90
31585;BME280;18191;51.288;12.390;2023-01-29T20:09:41;49136.16;;;-144.47;70.31
31585;BME280;18191;51.288;12.390;2023-01-29T20:14:31;49112.28;;;-144.47;69.74
31585;BME280;18191;51.288;12.390;2023-01-29T20:19:21;49140.13;;;-144.47;68.91
31585;BME280;18191;51.288;12.390;2023-01-29T20:24:11;49136.16;;;-144.47;70.10
31585;BME280;18191;51.288;12.390;2023-01-29T20:29:02;49144.09;;;-144.47;68.91
31585;BME280;18191;51.288;12.390;2023-01-29T20:33:52;49144.09;;;-144.47;69.86
31585;BME280;18191;51.288;12.390;2023-01-29T20:38:42;49104.31;;;-144.47;69.46
31585;BME280;18191;51.288;12.390;2023-01-29T20:43:33;49144.09;;;-144.47;70.26
31585;BME280;18191;51.288;12.390;2023-01-29T20:48:23;49112.28;;;-144.47;69.34
31585;BME280;18191;51.288;12.390;2023-01-29T20:53:13;49152.06;;;-144.47;69.45
31585;BME280;18191;51.288;12.390;2023-01-29T20:58:04;49136.16;;;-144.47;69.25
31585;BME280;18191;51.288;12.390;2023-01-29T21:02:54;49148.09;;;-144.47;69.29
31585;BME280;18191;51.288;12.390;2023-01-29T21:07:44;49140.13;;;-144.47;69.05
31585;BME280;18191;51.288;12.390;2023-01-29T21:12:34;49136.16;;;-144.47;69.26
31585;BME280;18191;51.288;12.390;2023-01-29T21:17:24;49152.06;;;-144.47;69.26
31585;BME280;18191;51.288;12.390;2023-01-29T21:22:15;49140.13;;;-144.47;69.41
31585;BME280;18191;51.288;12.390;2023-01-29T21:27:05;49128.19;;;-144.47;69.23
31585;BME280;18191;51.288;12.390;2023-01-29T21:31:55;49104.31;;;-144.47;69.78
31585;BME280;18191;51.288;12.390;2023-01-29T21:36:45;49136.16;;;-144.47;69.34
31585;BME280;18191;51.288;12.390;2023-01-29T21:41:36;49179.91;;;-144.47;69.79
31585;BME280;18191;51.288;12.390;2023-01-29T21:46:45;49124.22;;;-144.47;69.92
31585;BME280;18191;51.288;12.390;2023-01-29T21:51:35;49118.25;;;-144.47;69.61
31585;BME280;18191;51.288;12.390;2023-01-29T21:56:25;49108.31;;;-144.47;70.13
31585;BME280;18191;51.288;12.390;2023-01-29T22:01:15;49164.00;;;-144.47;70.55
31585;BME280;18191;51.288;12.390;2023-01-29T22:06:05;49167.97;;;-144.47;70.75
31585;BME280;18191;51.288;12.390;2023-01-29T22:10:56;49148.09;;;-144.47;70.30
31585;BME280;18191;51.288;12.390;2023-01-29T22:15:46;49148.09;;;-144.47;71.08
31585;BME280;18191;51.288;12.390;2023-01-29T22:20:36;49154.06;;;-144.47;70.53
31585;BME280;18191;51.288;12.390;2023-01-29T22:25:26;49092.38;;;-144.47;70.37
31585;BME280;18191;51.288;12.390;2023-01-29T22:30:17;49136.16;;;-144.47;70.71
31585;BME280;18191;51.288;12.390;2023-01-29T22:35:07;49096.38;;;-144.47;71.11
31585;BME280;18191;51.288;12.390;2023-01-29T22:39:58;49136.16;;;-144.47;70.77
31585;BME280;18191;51.288;12.390;2023-01-29T22:44:48;49156.03;;;-144.47;71.57
31585;BME280;18191;51.288;12.390;2023-01-29T22:49:38;49175.94;;;-144.47;70.76
31585;BME280;18191;51.288;12.390;2023-01-29T22:54:28;49140.13;;;-144.47;70.66
31585;BME280;18191;51.288;12.390;2023-01-29T22:59:18;49132.16;;;-144.47;70.92
31585;BME280;18191;51.288;12.390;2023-01-29T23:04:10;49124.22;;;-144.47;71.17
31585;BME280;18191;51.288;12.390;2023-01-29T23:09:00;49132.16;;;-144.47;70.84
31585;BME280;18191;51.288;12.390;2023-01-29T23:13:51;49112.28;;;-144.47;70.72
31585;BME280;18191;51.288;12.390;2023-01-29T23:18:42;49136.16;;;-144.47;70.75
31585;BME280;18191;51.288;12.390;2023-01-29T23:23:33;49164.00;;;-144.47;70.04
31585;BME280;18191;51.288;12.390;2023-01-29T23:28:24;49150.06;;;-144.47;69.82
31585;BME280;18191;51.288;12.390;2023-01-29T23:33:14;49183.91;;;-144.47;69.35
31585;BME280;18191;51.288;12.390;2023-01-29T23:38:04;49128.19;;;-144.47;70.46
31585;BME280;18191;51.288;12.390;2023-01-29T23:42:54;49100.34;;;-144.47;70.72
31585;BME280;18191;51.288;12.390;2023-01-29T23:47:44;49152.06;;;-144.47;70.34
31585;BME280;18191;51.288;12.390;2023-01-29T23:52:34;49183.91;;;-144.47;70.99
31585;BME280;18191;51.288;12.390;2023-01-29T23:57:25;49156.03;;;-144.47;71.18
